KPOE/POE METAR and TAF weather

Enter ICAO airport designator
Station Type Date Time Source
KPOE METAR 2023/02/04 02:55 UTC NOAA

KPOE 040255Z AUTO 03004KT 10SM CLR 04/03 A3049 RMK AO2 SLPNO T00410028 50005


Station Type Date Time Source
KPOE Decoded METAR 2023/02/04 02:55 UTC NOAA

Fort Polk, Polk AAF Ft Polk, LA, United States (KPOE) 31-03N 093-11-38W
Feb 03, 2023 - 09:55 PM EST / 2023.02.04 0255 UTC
Wind: from the NNE (030 degrees) at 5 MPH (4 KT):0
Visibility: 10 mile(s):0
Sky conditions: clear
Temperature: 39.4 F (4.1 C)
Dew Point: 37.0 F (2.8 C)
Relative Humidity: 91%
Pressure (altimeter): 30.49 in. Hg (1032 hPa)
Pressure tendency: 0.01 inches (0.5 hPa) higher than three hours ago
ob: KPOE 040255Z AUTO 03004KT 10SM CLR 04/03 A3049 RMK AO2 SLPNO T00410028 50005
cycle: 3

Station Type Date Time Source
KPOE TAF 2023/02/03 23:57 UTC NOAA

TAF KPOE 032300Z 0323/0505 VRB06KT 9999 SKC QNH3040INS
BECMG 0417/0418 VRB06KT 9999 SCT220 QNH3043INS
BECMG 0504/0505 VRB06KT 9999 BKN025 QNH3032INS TX13/0421Z TNM01/0413Z LAST NO
AMDS AFT 0406 NEXT 0415

Example: see airport list